Ed Rogowsky — WDD3622 — position and weather

sailwx.info

Track history (hours):
 
Tides and Currents Weather Stations Pressure Air Temp Water Temp Dewpoint Dewpoint Depression Visibility Wind Speed Wind Dir Waves Ship Positions

Ed Rogowsky

Owner: NEW YORK TRANS HARBOR LLC, New York, NY. More information available from US FCC via Universal Licensing System and Coast Guard Vessel Documentation Center.

Last reported at 2018-Jan-12 15:00 UTC. Time now 2018-Jan-18 06:22 UTC.
Position N 40°40' W 074°01'.

Length 22 m.

Type: Passenger vessel. MMSI: 367134010.

Date/timePositionNaut miles runAvg speedWind from/ knotsBaromVisibWave heightAir tempDewpointWater temp
2018-Jan-12 15:00N 40°40' W 074°01'0 0.0
2018-Jan-12 14:30N 40°40' W 074°01'0 0.0
2018-Jan-11 22:10N 40°40' W 074°01'0 1.0
2018-Jan-11 22:00N 40°40' W 074°01'2 4.1
2018-Jan-11 21:30N 40°42' W 074°00'1 2.6
2018-Jan-11 21:00N 40°43' W 074°01'1 2.5
2018-Jan-11 20:30N 40°42' W 074°00'0 0.2
2018-Jan-11 20:00N 40°42' W 074°00'1 2.7
2018-Jan-11 19:30N 40°43' W 074°01'1 2.5
2018-Jan-11 19:00N 40°42' W 074°00'0 0.0
2018-Jan-11 18:30N 40°42' W 074°00'1 2.7
2018-Jan-11 18:00N 40°43' W 074°02'1 2.7
2018-Jan-11 17:30N 40°42' W 074°00'0 0.4
2018-Jan-11 17:01N 40°42' W 074°00'1 2.0
2018-Jan-11 16:30N 40°43' W 074°01'1 1.9
2018-Jan-11 16:00N 40°42' W 074°00'1 2.5
2018-Jan-11 15:30N 40°41' W 074°01'1 1.5
2018-Jan-11 14:59N 40°40' W 074°01'0 0.0
2018-Jan-10 18:22N 40°40' W 074°01'0 0.0
2018-Jan-09 15:51N 40°40' W 074°01'2 4.7
2018-Jan-09 15:30N 40°39' W 074°02'612.3
2018-Jan-09 15:00N 40°45' W 073°58'613.0
2018-Jan-09 14:30N 40°39' W 074°02'610.4
2018-Jan-09 13:54N 40°45' W 073°58'615.7
2018-Jan-09 13:30N 40°39' W 074°02'6 9.4
2018-Jan-09 12:54N 40°44' W 073°58'614.0
2018-Jan-09 12:30N 40°39' W 074°02'611.5
2018-Jan-09 11:58N 40°45' W 073°58'614.1
2018-Jan-09 11:30N 40°39' W 074°02'5 8.4
2018-Jan-09 10:52N 40°44' W 073°58'515.3
2018-Jan-09 10:30N 40°39' W 074°02'2 3.3
2018-Jan-09 10:00N 40°40' W 074°01'0 0.0
2018-Jan-09 09:30N 40°40' W 074°01'0 0.0
2018-Jan-09 01:43N 40°40' W 074°01'1 2.9
2018-Jan-09 01:31N 40°40' W 074°01'3 4.9
2018-Jan-09 00:52N 40°42' W 073°59'3 8.6
2018-Jan-09 00:31N 40°40' W 074°01'2 4.1
2018-Jan-08 23:59N 40°42' W 074°00'0 0.5
2018-Jan-08 23:05N 40°42' W 073°60'114.8
2018-Jan-08 23:00N 40°41' W 074°01'1 1.9
2018-Jan-08 22:30N 40°40' W 074°01'0 0.0
2018-Jan-08 22:00N 40°40' W 074°01'0 0.0
2018-Jan-08 21:30N 40°40' W 074°01'0 0.0
2018-Jan-08 21:00N 40°40' W 074°01'0 0.0
2018-Jan-08 20:30N 40°40' W 074°01'0 0.0
2018-Jan-08 20:00N 40°40' W 074°01'0 0.0
2018-Jan-08 19:30N 40°40' W 074°01'0 0.0
2018-Jan-08 19:00N 40°40' W 074°01'0 0.0
2018-Jan-08 18:30N 40°40' W 074°01'0 0.0
2018-Jan-08 18:00N 40°40' W 074°01'0 0.0
2018-Jan-08 17:30N 40°40' W 074°01'0 0.0
2018-Jan-08 17:00N 40°40' W 074°01'0 0.0
2018-Jan-08 16:30N 40°40' W 074°01'0 0.0
2018-Jan-08 16:00N 40°40' W 074°01'0 0.0
2018-Jan-08 15:30N 40°40' W 074°01'0 0.0
2018-Jan-08 15:00N 40°40' W 074°01'0 0.0
2018-Jan-08 14:30N 40°40' W 074°01'0 0.0
2018-Jan-08 14:00N 40°40' W 074°01'0 0.0
2018-Jan-08 13:30N 40°40' W 074°01'2 3.1
2018-Jan-08 13:00N 40°42' W 074°00'3 6.2
2018-Jan-08 12:30N 40°39' W 074°02'2 3.1
2018-Jan-08 12:00N 40°40' W 074°01'0 0.0
2018-Jan-08 11:30N 40°40' W 074°01'0 0.0
2018-Jan-08 11:00N 40°40' W 074°01'0 0.0
2018-Jan-07 02:08N 40°40' W 074°01'0 0.2
2018-Jan-07 02:01N 40°40' W 074°01'0 0.3
2018-Jan-07 01:30N 40°40' W 074°01'0 0.3
2018-Jan-07 00:31N 40°40' W 074°01'2 3.8
2018-Jan-06 23:59N 40°42' W 074°00'0 0.3
2018-Jan-06 23:24N 40°42' W 074°00'0 0.0
2018-Jan-06 22:58N 40°42' W 074°00'0 0.4
2018-Jan-06 22:28N 40°42' W 074°00'2 3.7
2018-Jan-06 21:57N 40°40' W 074°01'2 4.2
2018-Jan-06 21:30N 40°42' W 074°00'2 3.9
2018-Jan-06 21:01N 40°40' W 074°01'1 1.4
2018-Jan-06 20:31N 40°41' W 074°01'0 0.9
2018-Jan-06 20:00N 40°41' W 074°01'1 2.2
2018-Jan-06 19:31N 40°40' W 074°01'2 3.8
2018-Jan-06 18:59N 40°42' W 074°00'2 1.8
2018-Jan-06 17:59N 40°41' W 074°01'2 3.3
2018-Jan-06 17:30N 40°42' W 074°00'2 3.5
2018-Jan-06 17:00N 40°40' W 074°01'1 1.5
2018-Jan-06 16:30N 40°41' W 074°01'1 0.0
2018-Jan-06 01:40N 40°40' W 074°01'1 6.7
2018-Jan-06 01:31N 40°39' W 074°02'611.5
2018-Jan-06 01:00N 40°45' W 073°58'612.7
2018-Jan-06 00:30N 40°39' W 074°02'611.5
2018-Jan-05 23:57N 40°45' W 073°58'614.1
2018-Jan-05 23:30N 40°39' W 074°02'611.7
2018-Jan-05 22:58N 40°45' W 073°58'613.4
2018-Jan-05 22:30N 40°39' W 074°02'612.7
2018-Jan-05 22:00N 40°45' W 073°58'612.6
2018-Jan-05 21:30N 40°39' W 074°02'612.1
2018-Jan-05 21:00N 40°44' W 073°58'612.9
2018-Jan-05 20:30N 40°39' W 074°02'612.7
2018-Jan-05 20:00N 40°45' W 073°58'612.7
2018-Jan-05 19:30N 40°39' W 074°02'611.9
2018-Jan-05 18:59N 40°45' W 073°58'613.2
2018-Jan-05 18:31N 40°39' W 074°02'611.4
2018-Jan-05 17:57N 40°45' W 073°58'614.3
2018-Jan-05 17:31N 40°39' W 074°02'612.6
2018-Jan-05 17:00N 40°45' W 073°58'612.7
2018-Jan-05 16:30N 40°39' W 074°02'611.5
2018-Jan-05 15:59N 40°44' W 073°58'612.0
2018-Jan-05 15:31N 40°39' W 074°02'610.9
2018-Jan-05 14:59N 40°44' W 073°58'612.8
2018-Jan-05 14:30N 40°39' W 074°02'612.6
2018-Jan-05 14:00N 40°45' W 073°58'612.6
2018-Jan-05 13:30N 40°39' W 074°02'612.1
2018-Jan-05 12:59N 40°45' W 073°58'613.3
2018-Jan-05 12:31N 40°39' W 074°02'611.9
2018-Jan-05 11:59N 40°45' W 073°58'613.4
2018-Jan-05 11:30N 40°39' W 074°02'612.4
2018-Jan-05 11:00N 40°45' W 073°58'613.0
2018-Jan-05 10:30N 40°39' W 074°02'2 3.2
2018-Jan-05 10:01N 40°40' W 074°01'0 0.1
2018-Jan-05 09:31N 40°40' W 074°01'0 0.0
2018-Jan-04 19:05N 40°40' W 074°01'0 0.0
2018-Jan-04 19:00N 40°40' W 074°01'2 3.3
2018-Jan-04 18:30N 40°39' W 074°02'611.3
2018-Jan-04 18:01N 40°44' W 073°58'510.8
2018-Jan-04 17:30N 40°39' W 074°02'510.1
2018-Jan-04 17:01N 40°43' W 073°58'510.4
2018-Jan-04 16:30N 40°39' W 074°02'611.8
2018-Jan-04 16:01N 40°44' W 073°58'510.9
2018-Jan-04 15:30N 40°39' W 074°02'4 8.9
2018-Jan-04 15:00N 40°43' W 073°58'5 9.1
2018-Jan-04 14:30N 40°39' W 074°02'5 9.3
2018-Jan-04 14:01N 40°43' W 073°58'5 9.9
2018-Jan-04 13:31N 40°39' W 074°02'611.6
2018-Jan-04 13:00N 40°44' W 073°58'611.6
2018-Jan-04 12:30N 40°39' W 074°02'2 3.2
2018-Jan-04 12:01N 40°40' W 074°01'0 0.0
2018-Jan-04 01:20N 40°40' W 074°01'1 4.2
2018-Jan-04 01:00N 40°42' W 074°00'1 2.9
2018-Jan-04 00:30N 40°40' W 074°01'0 0.5
2018-Jan-04 00:00N 40°40' W 074°01'2 3.7
2018-Jan-03 23:30N 40°42' W 074°00'2 4.1
2018-Jan-03 23:01N 40°40' W 074°01'0 0.5
2018-Jan-03 22:30N 40°40' W 074°01'2 3.8
2018-Jan-03 22:00N 40°42' W 074°00'2 3.9
2018-Jan-03 21:30N 40°40' W 074°01'0 0.6
2018-Jan-03 21:01N 40°40' W 074°01'2 3.8
2018-Jan-03 20:30N 40°42' W 074°00'2 4.0
2018-Jan-03 20:00N 40°40' W 074°01'0 0.3
2018-Jan-03 19:30N 40°40' W 074°01'1 1.2
2018-Jan-03 19:01N 40°41' W 074°01'1 1.0
2018-Jan-03 18:31N 40°40' W 074°01'5 9.4
2018-Jan-03 18:01N 40°45' W 073°58'612.6
2018-Jan-03 17:30N 40°39' W 074°02'612.6
2018-Jan-03 17:00N 40°45' W 073°58'612.7
2018-Jan-03 16:30N 40°39' W 074°02'612.7
2018-Jan-03 16:00N 40°45' W 073°58'612.7
2018-Jan-03 15:31N 40°39' W 074°02'612.5
2018-Jan-03 15:00N 40°45' W 073°58'612.8
2018-Jan-03 14:30N 40°39' W 074°02'612.5
2018-Jan-03 14:00N 40°45' W 073°58'612.9
2018-Jan-03 13:31N 40°39' W 074°02'612.3
2018-Jan-03 12:59N 40°45' W 073°58'613.3
2018-Jan-03 12:31N 40°39' W 074°02'612.6
2018-Jan-03 12:00N 40°45' W 073°58'612.7
2018-Jan-03 11:30N 40°39' W 074°02'612.2
2018-Jan-03 10:59N 40°45' W 073°58'613.3
2018-Jan-03 10:30N 40°39' W 074°02'  
Track history (hours):
 
Tides and Currents Weather Stations Pressure Air Temp Water Temp Dewpoint Dewpoint Depression Visibility Wind Speed Wind Dir Waves Ship Positions

Ed Rogowsky

Owner: NEW YORK TRANS HARBOR LLC, New York, NY. More information available from US FCC via Universal Licensing System and Coast Guard Vessel Documentation Center.

Last reported at 2018-Jan-12 15:00 UTC. Time now 2018-Jan-18 06:22 UTC.
Position N 40°40' W 074°01'.

Length 22 m.

Type: Passenger vessel. MMSI: 367134010.

Date/timePositionNaut miles runAvg speedWind from/ knotsBaromVisibWave heightAir tempDewpointWater temp
2018-Jan-12 15:00N 40°40' W 074°01'0 0.0
2018-Jan-12 14:30N 40°40' W 074°01'0 0.0
2018-Jan-11 22:10N 40°40' W 074°01'0 1.0
2018-Jan-11 22:00N 40°40' W 074°01'2 4.1
2018-Jan-11 21:30N 40°42' W 074°00'1 2.6
2018-Jan-11 21:00N 40°43' W 074°01'1 2.5
2018-Jan-11 20:30N 40°42' W 074°00'0 0.2
2018-Jan-11 20:00N 40°42' W 074°00'1 2.7
2018-Jan-11 19:30N 40°43' W 074°01'1 2.5
2018-Jan-11 19:00N 40°42' W 074°00'0 0.0
2018-Jan-11 18:30N 40°42' W 074°00'1 2.7
2018-Jan-11 18:00N 40°43' W 074°02'1 2.7
2018-Jan-11 17:30N 40°42' W 074°00'0 0.4
2018-Jan-11 17:01N 40°42' W 074°00'1 2.0
2018-Jan-11 16:30N 40°43' W 074°01'1 1.9
2018-Jan-11 16:00N 40°42' W 074°00'1 2.5
2018-Jan-11 15:30N 40°41' W 074°01'1 1.5
2018-Jan-11 14:59N 40°40' W 074°01'0 0.0
2018-Jan-10 18:22N 40°40' W 074°01'0 0.0
2018-Jan-09 15:51N 40°40' W 074°01'2 4.7
2018-Jan-09 15:30N 40°39' W 074°02'612.3
2018-Jan-09 15:00N 40°45' W 073°58'613.0
2018-Jan-09 14:30N 40°39' W 074°02'610.4
2018-Jan-09 13:54N 40°45' W 073°58'615.7
2018-Jan-09 13:30N 40°39' W 074°02'6 9.4
2018-Jan-09 12:54N 40°44' W 073°58'614.0
2018-Jan-09 12:30N 40°39' W 074°02'611.5
2018-Jan-09 11:58N 40°45' W 073°58'614.1
2018-Jan-09 11:30N 40°39' W 074°02'5 8.4
2018-Jan-09 10:52N 40°44' W 073°58'515.3
2018-Jan-09 10:30N 40°39' W 074°02'2 3.3
2018-Jan-09 10:00N 40°40' W 074°01'0 0.0
2018-Jan-09 09:30N 40°40' W 074°01'0 0.0
2018-Jan-09 01:43N 40°40' W 074°01'1 2.9
2018-Jan-09 01:31N 40°40' W 074°01'3 4.9
2018-Jan-09 00:52N 40°42' W 073°59'3 8.6
2018-Jan-09 00:31N 40°40' W 074°01'2 4.1
2018-Jan-08 23:59N 40°42' W 074°00'0 0.5
2018-Jan-08 23:05N 40°42' W 073°60'114.8
2018-Jan-08 23:00N 40°41' W 074°01'1 1.9
2018-Jan-08 22:30N 40°40' W 074°01'0 0.0
2018-Jan-08 22:00N 40°40' W 074°01'0 0.0
2018-Jan-08 21:30N 40°40' W 074°01'0 0.0
2018-Jan-08 21:00N 40°40' W 074°01'0 0.0
2018-Jan-08 20:30N 40°40' W 074°01'0 0.0
2018-Jan-08 20:00N 40°40' W 074°01'0 0.0
2018-Jan-08 19:30N 40°40' W 074°01'0 0.0
2018-Jan-08 19:00N 40°40' W 074°01'0 0.0
2018-Jan-08 18:30N 40°40' W 074°01'0 0.0
2018-Jan-08 18:00N 40°40' W 074°01'0 0.0
2018-Jan-08 17:30N 40°40' W 074°01'0 0.0
2018-Jan-08 17:00N 40°40' W 074°01'0 0.0
2018-Jan-08 16:30N 40°40' W 074°01'0 0.0
2018-Jan-08 16:00N 40°40' W 074°01'0 0.0
2018-Jan-08 15:30N 40°40' W 074°01'0 0.0
2018-Jan-08 15:00N 40°40' W 074°01'0 0.0
2018-Jan-08 14:30N 40°40' W 074°01'0 0.0
2018-Jan-08 14:00N 40°40' W 074°01'0 0.0
2018-Jan-08 13:30N 40°40' W 074°01'2 3.1
2018-Jan-08 13:00N 40°42' W 074°00'3 6.2
2018-Jan-08 12:30N 40°39' W 074°02'2 3.1
2018-Jan-08 12:00N 40°40' W 074°01'0 0.0
2018-Jan-08 11:30N 40°40' W 074°01'0 0.0
2018-Jan-08 11:00N 40°40' W 074°01'0 0.0
2018-Jan-07 02:08N 40°40' W 074°01'0 0.2
2018-Jan-07 02:01N 40°40' W 074°01'0 0.3
2018-Jan-07 01:30N 40°40' W 074°01'0 0.3
2018-Jan-07 00:31N 40°40' W 074°01'2 3.8
2018-Jan-06 23:59N 40°42' W 074°00'0 0.3
2018-Jan-06 23:24N 40°42' W 074°00'0 0.0
2018-Jan-06 22:58N 40°42' W 074°00'0 0.4
2018-Jan-06 22:28N 40°42' W 074°00'2 3.7
2018-Jan-06 21:57N 40°40' W 074°01'2 4.2
2018-Jan-06 21:30N 40°42' W 074°00'2 3.9
2018-Jan-06 21:01N 40°40' W 074°01'1 1.4
2018-Jan-06 20:31N 40°41' W 074°01'0 0.9
2018-Jan-06 20:00N 40°41' W 074°01'1 2.2
2018-Jan-06 19:31N 40°40' W 074°01'2 3.8
2018-Jan-06 18:59N 40°42' W 074°00'2 1.8
2018-Jan-06 17:59N 40°41' W 074°01'2 3.3
2018-Jan-06 17:30N 40°42' W 074°00'2 3.5
2018-Jan-06 17:00N 40°40' W 074°01'1 1.5
2018-Jan-06 16:30N 40°41' W 074°01'1 0.0
2018-Jan-06 01:40N 40°40' W 074°01'1 6.7
2018-Jan-06 01:31N 40°39' W 074°02'611.5
2018-Jan-06 01:00N 40°45' W 073°58'612.7
2018-Jan-06 00:30N 40°39' W 074°02'611.5
2018-Jan-05 23:57N 40°45' W 073°58'614.1
2018-Jan-05 23:30N 40°39' W 074°02'611.7
2018-Jan-05 22:58N 40°45' W 073°58'613.4
2018-Jan-05 22:30N 40°39' W 074°02'612.7
2018-Jan-05 22:00N 40°45' W 073°58'612.6
2018-Jan-05 21:30N 40°39' W 074°02'612.1
2018-Jan-05 21:00N 40°44' W 073°58'612.9
2018-Jan-05 20:30N 40°39' W 074°02'612.7
2018-Jan-05 20:00N 40°45' W 073°58'612.7
2018-Jan-05 19:30N 40°39' W 074°02'611.9
2018-Jan-05 18:59N 40°45' W 073°58'613.2
2018-Jan-05 18:31N 40°39' W 074°02'611.4
2018-Jan-05 17:57N 40°45' W 073°58'614.3
2018-Jan-05 17:31N 40°39' W 074°02'612.6
2018-Jan-05 17:00N 40°45' W 073°58'612.7
2018-Jan-05 16:30N 40°39' W 074°02'611.5
2018-Jan-05 15:59N 40°44' W 073°58'612.0
2018-Jan-05 15:31N 40°39' W 074°02'610.9
2018-Jan-05 14:59N 40°44' W 073°58'612.8
2018-Jan-05 14:30N 40°39' W 074°02'612.6
2018-Jan-05 14:00N 40°45' W 073°58'612.6
2018-Jan-05 13:30N 40°39' W 074°02'612.1
2018-Jan-05 12:59N 40°45' W 073°58'613.3
2018-Jan-05 12:31N 40°39' W 074°02'611.9
2018-Jan-05 11:59N 40°45' W 073°58'613.4
2018-Jan-05 11:30N 40°39' W 074°02'612.4
2018-Jan-05 11:00N 40°45' W 073°58'613.0
2018-Jan-05 10:30N 40°39' W 074°02'2 3.2
2018-Jan-05 10:01N 40°40' W 074°01'0 0.1
2018-Jan-05 09:31N 40°40' W 074°01'0 0.0
2018-Jan-04 19:05N 40°40' W 074°01'0 0.0
2018-Jan-04 19:00N 40°40' W 074°01'2 3.3
2018-Jan-04 18:30N 40°39' W 074°02'611.3
2018-Jan-04 18:01N 40°44' W 073°58'510.8
2018-Jan-04 17:30N 40°39' W 074°02'510.1
2018-Jan-04 17:01N 40°43' W 073°58'510.4
2018-Jan-04 16:30N 40°39' W 074°02'611.8
2018-Jan-04 16:01N 40°44' W 073°58'510.9
2018-Jan-04 15:30N 40°39' W 074°02'4 8.9
2018-Jan-04 15:00N 40°43' W 073°58'5 9.1
2018-Jan-04 14:30N 40°39' W 074°02'5 9.3
2018-Jan-04 14:01N 40°43' W 073°58'5 9.9
2018-Jan-04 13:31N 40°39' W 074°02'611.6
2018-Jan-04 13:00N 40°44' W 073°58'611.6
2018-Jan-04 12:30N 40°39' W 074°02'2 3.2
2018-Jan-04 12:01N 40°40' W 074°01'0 0.0
2018-Jan-04 01:20N 40°40' W 074°01'1 4.2
2018-Jan-04 01:00N 40°42' W 074°00'1 2.9
2018-Jan-04 00:30N 40°40' W 074°01'0 0.5
2018-Jan-04 00:00N 40°40' W 074°01'2 3.7
2018-Jan-03 23:30N 40°42' W 074°00'2 4.1
2018-Jan-03 23:01N 40°40' W 074°01'0 0.5
2018-Jan-03 22:30N 40°40' W 074°01'2 3.8
2018-Jan-03 22:00N 40°42' W 074°00'2 3.9
2018-Jan-03 21:30N 40°40' W 074°01'0 0.6
2018-Jan-03 21:01N 40°40' W 074°01'2 3.8
2018-Jan-03 20:30N 40°42' W 074°00'2 4.0
2018-Jan-03 20:00N 40°40' W 074°01'0 0.3
2018-Jan-03 19:30N 40°40' W 074°01'1 1.2
2018-Jan-03 19:01N 40°41' W 074°01'1 1.0
2018-Jan-03 18:31N 40°40' W 074°01'5 9.4
2018-Jan-03 18:01N 40°45' W 073°58'612.6
2018-Jan-03 17:30N 40°39' W 074°02'612.6
2018-Jan-03 17:00N 40°45' W 073°58'612.7
2018-Jan-03 16:30N 40°39' W 074°02'612.7
2018-Jan-03 16:00N 40°45' W 073°58'612.7
2018-Jan-03 15:31N 40°39' W 074°02'612.5
2018-Jan-03 15:00N 40°45' W 073°58'612.8
2018-Jan-03 14:30N 40°39' W 074°02'612.5
2018-Jan-03 14:00N 40°45' W 073°58'612.9
2018-Jan-03 13:31N 40°39' W 074°02'612.3
2018-Jan-03 12:59N 40°45' W 073°58'613.3
2018-Jan-03 12:31N 40°39' W 074°02'612.6
2018-Jan-03 12:00N 40°45' W 073°58'612.7
2018-Jan-03 11:30N 40°39' W 074°02'612.2
2018-Jan-03 10:59N 40°45' W 073°58'613.3
2018-Jan-03 10:30N 40°39' W 074°02'  

Dump ship's entire track history